Terminal Aerodrome Forecast
Issued by NWS

Home | Current Version | Previous Version | Text Only | Print | Product List | Glossary Off
Versions: 1 2 3 4 5 6 7 8 9 10 11 12 13 14 15

000
FTUS43 KIWX 272300
TAFSBN
TAF
KSBN 272323Z 2800/2824 20013G20KT P6SM VCSH BKN050
     FM280800 22013KT 5SM -SHRA VCTS OVC020CB
     FM281500 26014G20KT P6SM SCT045=

USA.gov is the U.S. government's official web portal to all federal, state and local government web resources and services.